createdAt,value
2022-10-14T00:02:23.692Z,24.35
2022-10-14T00:04:50.459Z,24.83
2022-10-14T00:07:17.130Z,25.90
2022-10-14T00:09:43.929Z,24.52
2022-10-14T00:12:10.580Z,24.27
2022-10-14T00:14:37.317Z,23.48
2022-10-14T00:17:04.351Z,26.52
2022-10-14T00:19:31.022Z,25.80
2022-10-14T00:21:57.707Z,28.77
2022-10-14T00:24:24.506Z,27.15
2022-10-14T00:26:51.206Z,28.17
2022-10-14T00:29:19.302Z,25.70
2022-10-14T00:31:46.698Z,25.95
2022-10-14T00:34:15.757Z,25.48
2022-10-14T00:36:43.407Z,25.05
2022-10-14T00:39:10.667Z,24.60
2022-10-14T00:41:37.916Z,24.27
2022-10-14T00:44:27.657Z,24.92
2022-10-14T00:46:55.669Z,24.77
2022-10-14T00:49:36.903Z,25.83
2022-10-14T00:52:10.944Z,24.40
2022-10-14T00:54:58.318Z,24.33
2022-10-14T00:57:26.412Z,25.27
2022-10-14T00:59:56.840Z,24.15
2022-10-14T01:02:23.599Z,24.25
2022-10-14T01:04:50.513Z,25.27
2022-10-14T01:07:41.857Z,24.15
2022-10-14T01:10:46.221Z,23.98
2022-10-14T01:13:31.372Z,23.98
2022-10-14T01:16:03.877Z,24.60
2022-10-14T01:19:08.112Z,26.15
2022-10-14T01:21:48.341Z,26.88
2022-10-14T01:24:20.793Z,24.67
2022-10-14T01:27:09.050Z,23.95
2022-10-14T01:29:56.966Z,24.58
2022-10-14T01:32:28.424Z,23.50
2022-10-14T01:35:11.602Z,25.38
2022-10-14T01:37:46.081Z,25.25
2022-10-14T01:40:20.679Z,24.15
2022-10-14T01:42:48.509Z,22.75
2022-10-14T01:45:20.034Z,23.15
2022-10-14T01:47:50.182Z,22.15
2022-10-14T01:50:20.288Z,26.13
2022-10-14T01:53:00.844Z,23.73
2022-10-14T01:55:32.747Z,24.02
2022-10-14T01:58:01.021Z,24.10
2022-10-14T02:00:27.814Z,23.42
2022-10-14T02:02:54.541Z,21.88
2022-10-14T02:05:26.795Z,24.08
2022-10-14T02:07:59.831Z,23.35
2022-10-14T02:10:56.019Z,25.33
2022-10-14T02:13:33.021Z,23.30
2022-10-14T02:16:24.053Z,24.85
2022-10-14T02:19:01.380Z,23.45
2022-10-14T02:21:43.294Z,24.55
2022-10-14T02:24:19.261Z,25.00
2022-10-14T02:26:49.088Z,23.40
2022-10-14T02:29:18.897Z,23.73
2022-10-14T02:31:47.316Z,22.73
2022-10-14T02:34:18.741Z,24.60
2022-10-14T02:36:47.631Z,25.42
2022-10-14T02:39:20.393Z,23.50
2022-10-14T02:41:47.259Z,23.38
2022-10-14T02:44:14.284Z,22.48
2022-10-14T02:46:41.383Z,24.67
2022-10-14T02:49:08.082Z,23.95
2022-10-14T02:51:34.799Z,22.35
2022-10-14T02:54:02.635Z,22.45
2022-10-14T02:56:29.326Z,22.73
2022-10-14T02:58:55.998Z,24.20
2022-10-14T03:01:22.771Z,22.35
2022-10-14T03:03:49.489Z,23.40
2022-10-14T03:06:16.167Z,23.55
2022-10-14T03:08:42.884Z,24.27
2022-10-14T03:11:09.603Z,21.92
2022-10-14T03:13:36.351Z,23.17
2022-10-14T03:16:03.473Z,22.40
2022-10-14T03:18:30.600Z,22.30
2022-10-14T03:20:57.430Z,21.63
2022-10-14T03:23:24.131Z,22.38
2022-10-14T03:25:50.828Z,22.80
2022-10-14T03:28:17.616Z,21.88
2022-10-14T03:30:44.440Z,22.48
2022-10-14T03:33:14.743Z,23.35
2022-10-14T03:35:42.118Z,23.20
2022-10-14T03:38:08.836Z,22.63
2022-10-14T03:40:35.556Z,21.52
2022-10-14T03:43:02.389Z,22.60
2022-10-14T03:45:29.137Z,21.02
2022-10-14T03:47:56.240Z,20.08
2022-10-14T03:50:23.227Z,20.48
2022-10-14T03:52:54.621Z,21.73
2022-10-14T03:55:22.199Z,22.85
2022-10-14T03:57:48.944Z,27.10
2022-10-14T04:00:16.450Z,24.95
2022-10-14T04:02:43.507Z,21.70
2022-10-14T04:05:10.447Z,21.65
2022-10-14T04:07:37.334Z,24.00
2022-10-14T04:10:04.976Z,21.60
2022-10-14T04:12:32.375Z,21.17
2022-10-14T04:14:59.097Z,21.35
2022-10-14T04:17:26.632Z,20.20
2022-10-14T04:19:53.642Z,22.83
2022-10-14T04:22:20.725Z,22.33
2022-10-14T04:24:47.609Z,24.80
2022-10-14T04:27:14.279Z,23.25
2022-10-14T04:29:41.009Z,22.75
2022-10-14T04:32:07.736Z,20.88
2022-10-14T04:34:34.740Z,21.42
2022-10-14T04:37:01.990Z,20.75
2022-10-14T04:39:28.726Z,21.38
2022-10-14T04:41:55.415Z,22.73
2022-10-14T04:44:22.200Z,21.38
2022-10-14T04:46:48.868Z,22.13
2022-10-14T04:49:16.554Z,22.23
2022-10-14T04:51:43.680Z,22.02
2022-10-14T04:54:10.435Z,21.63
2022-10-14T04:56:37.961Z,21.90
2022-10-14T04:59:05.035Z,21.00
2022-10-14T05:01:34.173Z,25.67
2022-10-14T05:04:01.160Z,29.00
2022-10-14T05:06:28.291Z,25.00
2022-10-14T05:08:55.119Z,22.63
2022-10-14T05:11:21.909Z,23.20
2022-10-14T05:13:48.657Z,21.65
2022-10-14T05:16:15.672Z,23.58
2022-10-14T05:18:42.378Z,22.13
2022-10-14T05:21:09.144Z,27.88
2022-10-14T05:23:35.833Z,24.38
2022-10-14T05:26:02.663Z,28.83
2022-10-14T05:28:29.673Z,25.13
2022-10-14T05:30:56.662Z,23.65
2022-10-14T05:33:23.435Z,25.10
2022-10-14T05:36:05.153Z,24.35
2022-10-14T05:38:33.950Z,23.92
2022-10-14T05:41:00.839Z,22.75
2022-10-14T05:43:32.154Z,22.42
2022-10-14T05:46:00.296Z,21.58
2022-10-14T05:48:27.360Z,22.45
2022-10-14T05:50:54.107Z,24.35
2022-10-14T05:53:20.909Z,27.48
2022-10-14T05:55:48.554Z,25.73
2022-10-14T05:58:15.293Z,23.10
2022-10-14T06:00:42.015Z,22.33
2022-10-14T06:03:11.812Z,23.58
2022-10-14T06:05:38.526Z,21.70
2022-10-14T06:08:05.634Z,23.42
2022-10-14T06:10:32.457Z,21.02
2022-10-14T06:12:59.173Z,25.48
2022-10-14T06:15:26.015Z,33.55
2022-10-14T06:17:52.757Z,33.72
2022-10-14T06:20:19.465Z,23.48
2022-10-14T06:22:46.217Z,22.45
2022-10-14T06:25:12.928Z,19.98
2022-10-14T06:27:39.592Z,34.45
2022-10-14T06:30:06.726Z,23.10
2022-10-14T06:32:33.674Z,34.72
2022-10-14T06:35:00.489Z,41.15
2022-10-14T06:37:27.226Z,23.40
2022-10-14T06:39:53.925Z,22.40
2022-10-14T06:42:20.630Z,20.70
2022-10-14T06:44:47.320Z,21.08
2022-10-14T06:47:14.037Z,21.77
2022-10-14T06:49:40.721Z,19.90
2022-10-14T06:52:07.585Z,19.40
2022-10-14T06:54:38.895Z,19.38
2022-10-14T06:57:08.873Z,19.30
2022-10-14T06:59:35.599Z,18.65
2022-10-14T07:02:02.312Z,19.48
2022-10-14T07:04:29.042Z,18.52
2022-10-14T07:06:57.755Z,18.38
2022-10-14T07:09:25.061Z,17.20
2022-10-14T07:11:51.751Z,19.05
2022-10-14T07:14:18.527Z,18.52
2022-10-14T07:16:45.617Z,18.67
2022-10-14T07:19:12.922Z,18.80
2022-10-14T07:21:39.672Z,17.73
2022-10-14T07:24:06.589Z,17.25
2022-10-14T07:26:33.431Z,18.23
2022-10-14T07:29:00.419Z,16.83
2022-10-14T07:31:27.381Z,17.40
2022-10-14T07:33:54.204Z,17.98
2022-10-14T07:36:22.590Z,18.05
2022-10-14T07:38:49.910Z,17.63
2022-10-14T07:41:23.310Z,16.20
2022-10-14T07:43:52.882Z,17.40
2022-10-14T07:46:34.788Z,17.17
2022-10-14T07:49:13.666Z,16.08
2022-10-14T07:51:41.143Z,16.90
2022-10-14T07:54:13.276Z,17.42
2022-10-14T07:56:42.243Z,16.85
2022-10-14T07:59:09.520Z,15.35
2022-10-14T08:01:37.354Z,17.30
2022-10-14T08:04:04.741Z,16.38
2022-10-14T08:06:31.491Z,17.90
2022-10-14T08:08:58.220Z,17.50
2022-10-14T08:11:29.321Z,17.40
2022-10-14T08:13:58.470Z,18.85
2022-10-14T08:16:28.059Z,18.40
2022-10-14T08:18:57.733Z,17.20
2022-10-14T08:21:25.053Z,17.60
2022-10-14T08:23:53.075Z,18.38
2022-10-14T08:26:28.094Z,18.13
2022-10-14T08:28:55.290Z,17.80
2022-10-14T08:31:22.181Z,16.88
2022-10-14T08:33:49.115Z,17.83
2022-10-14T08:36:16.956Z,17.38
2022-10-14T08:38:43.738Z,18.50
2022-10-14T08:41:13.540Z,20.45
2022-10-14T08:44:09.377Z,22.48
2022-10-14T08:46:52.317Z,17.15
2022-10-14T08:49:25.605Z,19.00
2022-10-14T08:52:15.818Z,18.02
2022-10-14T08:54:50.905Z,16.88
2022-10-14T08:57:26.235Z,16.92
2022-10-14T08:59:53.672Z,18.17
2022-10-14T09:02:33.936Z,18.92
2022-10-14T09:05:02.141Z,18.40
2022-10-14T09:07:31.277Z,17.08
2022-10-14T09:10:06.756Z,18.45
2022-10-14T09:12:35.607Z,17.45
2022-10-14T09:15:09.945Z,17.65
2022-10-14T09:17:46.540Z,16.95
2022-10-14T09:20:23.341Z,16.70
2022-10-14T09:22:58.861Z,16.83
2022-10-14T09:25:25.665Z,16.15
2022-10-14T09:27:52.497Z,15.40
2022-10-14T09:30:19.357Z,20.10
2022-10-14T09:32:52.562Z,16.15
2022-10-14T09:35:32.465Z,15.40
2022-10-14T09:37:59.319Z,15.32
2022-10-14T09:40:34.039Z,17.35
2022-10-14T09:43:07.960Z,15.70
2022-10-14T09:45:46.989Z,15.52
2022-10-14T09:48:34.011Z,14.80
2022-10-14T09:51:08.670Z,15.27
2022-10-14T09:53:45.236Z,14.07
2022-10-14T09:56:12.759Z,14.73
2022-10-14T09:58:56.381Z,14.52
2022-10-14T10:01:25.789Z,13.73
2022-10-14T10:03:54.149Z,14.18
2022-10-14T10:06:25.880Z,14.23
2022-10-14T10:08:55.595Z,12.52
2022-10-14T10:11:37.382Z,13.63
2022-10-14T10:14:32.475Z,12.98
2022-10-14T10:17:08.281Z,12.43
2022-10-14T10:19:43.245Z,13.30
2022-10-14T10:22:26.686Z,13.02
2022-10-14T10:25:02.481Z,14.13
2022-10-14T10:27:36.257Z,12.90
2022-10-14T10:30:17.867Z,13.10
2022-10-14T10:33:10.722Z,12.07
2022-10-14T10:36:02.086Z,12.85
2022-10-14T10:38:49.643Z,12.15
2022-10-14T10:41:48.408Z,11.90
2022-10-14T10:44:15.398Z,11.65
2022-10-14T10:46:51.629Z,10.30
2022-10-14T10:52:35.291Z,9.27
2022-10-14T10:55:11.524Z,9.48
2022-10-14T10:58:09.960Z,9.05
2022-10-14T11:00:48.117Z,9.43
2022-10-14T11:03:32.752Z,8.35
2022-10-14T11:06:10.284Z,10.13
2022-10-14T11:08:55.615Z,9.77
2022-10-14T11:12:01.472Z,9.10
2022-10-14T11:14:46.214Z,8.40
2022-10-14T11:17:13.010Z,9.43
2022-10-14T11:19:50.280Z,8.75
2022-10-14T11:22:59.123Z,8.30
2022-10-14T11:25:55.551Z,8.15
2022-10-14T11:29:01.592Z,7.43
2022-10-14T11:31:42.860Z,8.85
2022-10-14T11:34:38.629Z,7.78
2022-10-14T11:37:20.995Z,7.47
2022-10-14T11:39:56.084Z,8.30
2022-10-14T11:42:38.630Z,7.93
2022-10-14T11:45:43.490Z,8.50
2022-10-14T11:48:15.464Z,8.38
2022-10-14T11:50:47.347Z,5.78
2022-10-14T11:53:46.543Z,6.45
2022-10-14T11:56:36.011Z,6.28
2022-10-14T11:59:48.212Z,6.43
2022-10-14T12:02:21.403Z,6.50
2022-10-14T12:04:55.932Z,7.10
2022-10-14T12:07:33.257Z,7.38
2022-10-14T12:10:17.512Z,6.57
2022-10-14T12:12:44.667Z,8.05
2022-10-14T12:15:19.280Z,6.63
2022-10-14T12:18:01.505Z,6.18
2022-10-14T12:20:47.900Z,6.07
2022-10-14T12:23:29.114Z,7.03
2022-10-14T12:26:06.921Z,6.35
2022-10-14T12:28:37.589Z,6.30
2022-10-14T12:31:42.752Z,6.78
2022-10-14T12:34:15.259Z,5.38
2022-10-14T12:36:44.890Z,5.38
2022-10-14T12:39:17.682Z,6.07
2022-10-14T12:42:02.038Z,5.68
2022-10-14T12:44:49.156Z,5.18
2022-10-14T12:47:33.496Z,6.32
2022-10-14T12:50:05.065Z,5.32
2022-10-14T12:52:44.922Z,5.18
2022-10-14T12:55:23.616Z,4.97
2022-10-14T12:57:55.428Z,5.65
2022-10-14T13:00:22.073Z,5.70
2022-10-14T13:02:51.640Z,5.28
2022-10-14T13:05:33.330Z,5.25
2022-10-14T13:08:25.780Z,5.78
2022-10-14T13:10:58.258Z,5.75
2022-10-14T13:13:40.226Z,4.95
2022-10-14T13:16:07.330Z,4.75
2022-10-14T13:18:38.368Z,4.88
2022-10-14T13:21:07.240Z,6.00
2022-10-14T13:23:52.581Z,5.50
2022-10-14T13:26:22.021Z,4.45
2022-10-14T13:29:16.808Z,4.63
2022-10-14T13:32:22.712Z,4.53
2022-10-14T13:35:26.410Z,4.78
2022-10-14T13:38:01.708Z,5.07
2022-10-14T13:40:37.139Z,4.50
2022-10-14T13:43:18.505Z,4.18
2022-10-14T13:46:08.163Z,4.43
2022-10-14T13:48:39.548Z,5.32
2022-10-14T13:51:35.044Z,4.60
2022-10-14T13:54:14.960Z,4.50
2022-10-14T13:56:42.277Z,3.67
2022-10-14T13:59:43.508Z,4.97
2022-10-14T14:02:20.952Z,4.57
2022-10-14T14:04:51.905Z,4.50
2022-10-14T14:08:14.234Z,4.13
2022-10-14T14:10:11.255Z,4.15
2022-10-14T14:12:41.396Z,4.72
2022-10-14T14:15:17.576Z,26.65
2022-10-14T14:17:44.279Z,5.63
2022-10-14T14:20:11.910Z,3.92
2022-10-14T14:22:43.498Z,4.53
2022-10-14T14:25:35.855Z,4.63
2022-10-14T14:28:08.466Z,4.82
2022-10-14T14:30:37.349Z,5.13
2022-10-14T14:33:11.850Z,5.00
2022-10-14T14:35:39.874Z,81.78
2022-10-14T14:38:34.265Z,8.48
2022-10-14T14:41:03.613Z,5.05
2022-10-14T14:43:35.812Z,6.07
2022-10-14T14:46:06.000Z,4.93
2022-10-14T14:48:34.079Z,4.70
2022-10-14T14:51:01.868Z,4.63
2022-10-14T14:53:31.699Z,5.28
2022-10-14T14:56:11.876Z,5.55
2022-10-14T14:58:47.128Z,4.65
2022-10-14T15:01:22.011Z,4.72
2022-10-14T15:04:13.802Z,4.30
2022-10-14T15:07:02.360Z,5.03
2022-10-14T15:09:34.823Z,4.40
2022-10-14T15:12:04.771Z,4.40
2022-10-14T15:14:47.538Z,5.70
2022-10-14T15:17:34.431Z,5.40
2022-10-14T15:20:23.785Z,6.85
2022-10-14T15:22:51.738Z,5.88
2022-10-14T15:25:21.287Z,5.32
2022-10-14T15:27:56.166Z,5.63
2022-10-14T15:30:39.522Z,5.80
2022-10-14T15:33:36.811Z,7.07
2022-10-14T15:36:03.684Z,6.35
2022-10-14T15:40:58.419Z,6.75
2022-10-14T15:43:27.235Z,5.95
2022-10-14T15:46:14.434Z,6.07
2022-10-14T15:48:49.968Z,5.97
2022-10-14T15:51:17.759Z,6.30
2022-10-14T15:53:44.437Z,5.38
2022-10-14T15:56:11.346Z,6.22
2022-10-14T15:58:38.120Z,5.45
2022-10-14T16:01:06.482Z,7.22
2022-10-14T16:03:37.236Z,5.32
2022-10-14T16:06:05.859Z,6.60
2022-10-14T16:08:33.487Z,5.85
2022-10-14T16:11:00.306Z,6.40
2022-10-14T16:13:27.015Z,6.78
2022-10-14T16:15:58.633Z,6.32
2022-10-14T16:18:25.857Z,6.25
2022-10-14T16:20:53.251Z,6.50
2022-10-14T16:23:24.838Z,7.53
2022-10-14T16:25:53.747Z,7.32
2022-10-14T16:28:21.639Z,8.35
2022-10-14T16:30:50.059Z,10.40
2022-10-14T16:33:23.839Z,9.57
2022-10-14T16:35:53.295Z,10.10
2022-10-14T16:38:20.228Z,9.30
2022-10-14T16:40:57.773Z,9.65
2022-10-14T16:43:25.374Z,9.10
2022-10-14T16:45:52.291Z,8.43
2022-10-14T16:48:19.464Z,8.52
2022-10-14T16:50:53.462Z,10.27
2022-10-14T16:53:39.473Z,9.50
2022-10-14T16:56:26.823Z,10.55
2022-10-14T16:58:53.524Z,11.95
2022-10-14T17:01:20.240Z,10.25
2022-10-14T17:03:46.978Z,9.57
2022-10-14T17:06:13.772Z,10.25
2022-10-14T17:08:41.325Z,12.40
2022-10-14T17:11:09.888Z,10.98
2022-10-14T17:13:37.003Z,8.95
2022-10-14T17:16:05.389Z,9.85
2022-10-14T17:18:34.942Z,10.38
2022-10-14T17:21:06.396Z,10.90
2022-10-14T17:23:34.882Z,11.05
2022-10-14T17:26:05.493Z,11.15
2022-10-14T17:28:33.182Z,9.52
2022-10-14T17:31:01.422Z,9.25
2022-10-14T17:33:28.157Z,10.05
2022-10-14T17:35:59.382Z,10.07
2022-10-14T17:38:30.314Z,10.68
2022-10-14T17:41:04.998Z,10.50
2022-10-14T17:43:32.012Z,10.30
2022-10-14T17:48:42.769Z,10.23
2022-10-14T17:51:11.113Z,11.00
2022-10-14T17:53:38.291Z,12.02
2022-10-14T17:56:06.488Z,12.00
2022-10-14T17:58:33.504Z,10.75
2022-10-14T18:01:09.060Z,10.07
2022-10-14T18:03:40.164Z,10.45
2022-10-14T18:06:16.232Z,11.40
2022-10-14T18:11:11.429Z,10.32
2022-10-14T18:16:13.315Z,12.40
2022-10-14T18:18:43.448Z,11.43
2022-10-14T18:21:10.399Z,10.07
2022-10-14T18:23:39.405Z,10.23
2022-10-14T18:26:12.593Z,11.95
2022-10-14T18:28:43.454Z,10.52
2022-10-14T18:31:21.880Z,9.55
2022-10-14T18:33:49.474Z,10.18
2022-10-14T18:36:19.100Z,10.80
2022-10-14T18:38:58.839Z,8.82
2022-10-14T18:41:27.009Z,9.27
2022-10-14T18:43:58.103Z,8.93
2022-10-14T18:46:27.884Z,9.07
2022-10-14T18:48:56.928Z,9.20
2022-10-14T18:51:26.114Z,9.55
2022-10-14T18:53:55.861Z,9.45
2022-10-14T18:56:25.600Z,8.40
2022-10-14T18:58:59.108Z,9.32
2022-10-14T19:01:26.922Z,11.07
2022-10-14T19:03:54.704Z,10.20
2022-10-14T19:06:21.914Z,10.07
2022-10-14T19:08:48.652Z,9.48
2022-10-14T19:11:20.188Z,9.50
2022-10-14T19:13:48.841Z,8.90
2022-10-14T19:16:24.484Z,9.50
2022-10-14T19:19:04.417Z,8.48
2022-10-14T19:21:31.758Z,8.30
2022-10-14T19:23:59.491Z,9.07
2022-10-14T19:26:31.832Z,9.95
2022-10-14T19:29:00.347Z,10.43
2022-10-14T19:31:31.952Z,9.05
2022-10-14T19:34:01.825Z,8.95
2022-10-14T19:36:29.361Z,9.18
2022-10-14T19:38:58.574Z,8.18
2022-10-14T19:41:30.048Z,9.40
2022-10-14T19:43:58.225Z,9.50
2022-10-14T19:46:28.957Z,8.90
2022-10-14T19:49:02.390Z,9.52
2022-10-14T19:51:29.662Z,10.63
2022-10-14T19:53:57.160Z,9.27
2022-10-14T19:56:25.691Z,9.23
2022-10-14T19:58:54.317Z,11.30
2022-10-14T20:01:23.831Z,10.85
2022-10-14T20:03:51.348Z,9.40
2022-10-14T20:06:18.655Z,8.52
2022-10-14T20:08:46.046Z,8.82
2022-10-14T20:11:14.999Z,10.73
2022-10-14T20:13:43.874Z,9.23
2022-10-14T20:16:11.852Z,8.52
2022-10-14T20:18:38.673Z,8.68
2022-10-14T20:21:07.148Z,8.20
2022-10-14T20:23:36.312Z,8.40
2022-10-14T20:26:05.305Z,9.00
2022-10-14T20:28:34.415Z,8.48
2022-10-14T20:31:01.292Z,7.60
2022-10-14T20:33:31.728Z,7.22
2022-10-14T20:36:03.098Z,7.90
2022-10-14T20:38:30.056Z,8.05
2022-10-14T20:41:04.009Z,7.43
2022-10-14T20:43:30.726Z,7.97
2022-10-14T20:45:57.454Z,8.25
2022-10-14T20:48:25.514Z,7.15
2022-10-14T20:50:52.212Z,6.90
2022-10-14T20:53:19.052Z,7.40
2022-10-14T20:55:45.889Z,11.27
2022-10-14T20:58:12.605Z,7.43
2022-10-14T21:00:39.291Z,7.10
2022-10-14T21:03:06.063Z,6.32
2022-10-14T21:05:36.266Z,6.75
2022-10-14T21:08:03.665Z,7.32
2022-10-14T21:10:30.484Z,6.97
2022-10-14T21:12:57.258Z,6.57
2022-10-14T21:15:26.786Z,8.02
2022-10-14T21:17:53.637Z,10.43
2022-10-14T21:20:20.426Z,9.98
2022-10-14T21:22:47.103Z,7.70
2022-10-14T21:25:14.047Z,8.25
2022-10-14T21:27:40.729Z,8.00
2022-10-14T21:30:07.944Z,7.00
2022-10-14T21:32:34.673Z,7.38
2022-10-14T21:35:01.438Z,7.35
2022-10-14T21:37:28.124Z,8.35
2022-10-14T21:39:54.926Z,6.55
2022-10-14T21:42:22.026Z,7.57
2022-10-14T21:44:48.906Z,8.93
2022-10-14T21:47:15.673Z,7.65
2022-10-14T21:49:42.356Z,7.05
2022-10-14T21:52:09.087Z,7.45
2022-10-14T21:54:35.837Z,7.43
2022-10-14T21:57:02.504Z,7.75
2022-10-14T21:59:29.217Z,8.18
2022-10-14T22:01:58.941Z,6.30
2022-10-14T22:04:29.458Z,7.93
2022-10-14T22:06:58.120Z,7.60
2022-10-14T22:09:24.856Z,7.60
2022-10-14T22:11:53.752Z,7.65
2022-10-14T22:14:20.813Z,7.03
2022-10-14T22:16:48.114Z,6.70
2022-10-14T22:19:15.364Z,6.30
2022-10-14T22:21:43.491Z,6.85
2022-10-14T22:24:10.532Z,6.47
2022-10-14T22:26:38.033Z,7.63
2022-10-14T22:29:14.045Z,7.53
2022-10-14T22:34:09.739Z,7.10
2022-10-14T22:36:36.533Z,7.53
2022-10-14T22:39:08.517Z,5.90
2022-10-14T22:41:36.090Z,5.78
2022-10-14T22:44:05.002Z,6.20
2022-10-14T22:46:33.722Z,5.75
2022-10-14T22:49:01.781Z,6.10
2022-10-14T22:51:31.181Z,5.50
2022-10-14T22:53:58.242Z,4.55
2022-10-14T22:56:27.131Z,4.72
2022-10-14T22:59:05.589Z,4.40
2022-10-14T23:01:32.695Z,3.88
2022-10-14T23:04:00.682Z,4.13
2022-10-14T23:06:28.251Z,4.28
2022-10-14T23:08:55.733Z,4.20
2022-10-14T23:11:24.354Z,4.28
2022-10-14T23:13:51.281Z,3.78
2022-10-14T23:16:20.690Z,3.45
2022-10-14T23:18:48.705Z,2.92
2022-10-14T23:21:18.521Z,3.83
2022-10-14T23:23:46.639Z,3.22
2022-10-14T23:26:16.311Z,3.38
2022-10-14T23:28:43.755Z,3.55
2022-10-14T23:31:16.152Z,3.22
2022-10-14T23:33:43.235Z,3.42
2022-10-14T23:36:12.292Z,3.35
2022-10-14T23:38:39.935Z,2.95
2022-10-14T23:41:07.675Z,3.38
2022-10-14T23:43:34.392Z,3.70
2022-10-14T23:46:01.327Z,3.67
2022-10-14T23:48:28.771Z,4.03
2022-10-14T23:50:55.791Z,4.07
2022-10-14T23:53:22.668Z,5.05
2022-10-14T23:55:49.576Z,4.38
2022-10-14T23:58:16.344Z,5.03
